Time;durP1;ratioP1;P1;durP2;ratioP2;P2;SDS_P1;SDS_P2;PMS_P1;PMS_P2;Temp;Humidity;BMP_temperature;BMP_pressure;BME280_temperature;BME280_humidity;BME280_pressure;Samples;Min_cycle;Max_cycle;Signal;HPM_P1;HPM_P2
2024/02/11 00:00:18;;;;;;;;;;;;;;;17.17;48.69;100131.41;5025020;28;1079;-58
2024/02/11 00:02:44;;;;;;;;;;;;;;;16.91;48.03;100133.63;5022073;28;1206;-58
2024/02/11 00:05:10;;;;;;;;;;;;;;;16.64;47.25;100145.94;5023669;28;1968;-58
2024/02/11 00:07:39;;;;;;;;;;;;;;;16.57;46.69;100150.97;5017113;28;1072;-58
2024/02/11 00:10:08;;;;;;;;;;;;;;;17.06;47.48;100152.66;5024600;28;1084;-58
2024/02/11 00:12:40;;;;;;;;;;;;;;;17.14;48.50;100150.38;5018517;28;1008;-58
2024/02/11 00:15:07;;;;;;;;;;;;;;;16.69;48.31;100172.50;5022977;28;1067;-58
2024/02/11 00:17:32;;;;;;;;;;;;;;;16.49;47.59;100177.09;5028970;28;1344;-58
2024/02/11 00:19:59;;;;;;;;;;;;;;;16.37;47.23;100161.00;5023597;28;1348;-57
2024/02/11 00:22:25;;;;;;;;;;;;;;;16.51;47.21;100160.31;5017694;28;1083;-57
2024/02/11 00:24:51;;;;;;;;;;;;;;;17.89;46.97;100160.69;5020828;28;1981;-59
2024/02/11 00:27:16;;;;;;;;;;;;;;;16.80;48.64;100165.00;5020214;28;1091;-59
2024/02/11 00:29:42;;;;;;;;;;;;;;;16.67;47.75;100159.09;5032266;28;1091;-58
2024/02/11 00:32:07;;;;;;;;;;;;;;;16.58;47.75;100163.56;5026723;28;1404;-59
2024/02/11 00:34:33;;;;;;;;;;;;;;;18.15;47.05;100156.78;5022103;28;1100;-58
2024/02/11 00:36:58;;;;;;;;;;;;;;;17.02;48.79;100150.81;5026024;28;1198;-58
2024/02/11 00:39:24;;;;;;;;;;;;;;;16.79;48.06;100142.25;5018939;28;1059;-58
2024/02/11 00:41:51;;;;;;;;;;;;;;;16.51;47.78;100135.63;5017282;28;1145;-58
2024/02/11 00:44:17;;;;;;;;;;;;;;;16.43;46.84;100140.63;5030038;28;1143;-54
2024/02/11 00:46:42;;;;;;;;;;;;;;;17.88;47.71;100147.22;5024960;28;1242;-55
2024/02/11 00:49:09;;;;;;;;;;;;;;;17.03;48.57;100158.75;5034634;28;1120;-54
2024/02/11 00:51:34;;;;;;;;;;;;;;;16.72;48.29;100161.78;5036058;28;1025;-58
2024/02/11 00:54:03;;;;;;;;;;;;;;;16.50;47.49;100156.78;5023299;28;885;-59
2024/02/11 00:56:28;;;;;;;;;;;;;;;16.38;47.08;100148.94;5024696;28;1090;-58
2024/02/11 00:58:56;;;;;;;;;;;;;;;17.76;47.63;100143.00;5030478;28;1083;-58
2024/02/11 01:01:22;;;;;;;;;;;;;;;16.97;48.74;100143.44;5028847;28;1147;-58
2024/02/11 01:03:56;;;;;;;;;;;;;;;16.69;47.95;100147.81;5035669;28;1019;-58
2024/02/11 01:06:22;;;;;;;;;;;;;;;18.16;47.18;100144.63;5022963;28;1913;-58
2024/02/11 01:08:49;;;;;;;;;;;;;;;17.09;48.55;100140.28;5023439;28;1051;-57
2024/02/11 01:11:17;;;;;;;;;;;;;;;16.70;48.30;100143.97;5027453;28;1104;-57
2024/02/11 01:13:42;;;;;;;;;;;;;;;16.56;47.57;100138.34;5029027;28;1210;-58
2024/02/11 01:16:08;;;;;;;;;;;;;;;17.71;47.73;100137.59;5030373;28;1005;-57
2024/02/11 01:18:34;;;;;;;;;;;;;;;17.03;48.81;100142.28;5029172;28;1059;-58
2024/02/11 01:20:59;;;;;;;;;;;;;;;16.76;47.76;100129.91;5017024;28;1131;-57
2024/02/11 01:23:25;;;;;;;;;;;;;;;16.83;48.12;100137.81;5028289;28;1130;-58
2024/02/11 01:25:51;;;;;;;;;;;;;;;18.03;47.25;100126.97;5029077;28;1888;-58
2024/02/11 01:28:17;;;;;;;;;;;;;;;17.07;48.61;100132.34;5024112;28;1052;-58
2024/02/11 01:30:45;;;;;;;;;;;;;;;16.67;48.13;100131.63;5022068;28;1075;-59
2024/02/11 01:33:10;;;;;;;;;;;;;;;16.58;47.42;100119.66;5024425;28;1056;-57
2024/02/11 01:35:36;;;;;;;;;;;;;;;17.98;47.42;100119.59;5035552;28;1222;-58
2024/02/11 01:38:02;;;;;;;;;;;;;;;17.05;48.59;100107.06;5039416;28;1070;-57
2024/02/11 01:40:27;;;;;;;;;;;;;;;16.75;48.25;100113.72;5033886;28;1142;-58
2024/02/11 01:42:56;;;;;;;;;;;;;;;16.82;47.96;100097.72;5034818;28;1198;-58
2024/02/11 01:45:21;;;;;;;;;;;;;;;18.13;46.92;100091.84;5024924;28;1967;-60
2024/02/11 01:47:47;;;;;;;;;;;;;;;17.13;48.24;100086.41;5030266;28;845;-58
2024/02/11 01:50:16;;;;;;;;;;;;;;;16.77;48.14;100081.28;5031252;28;1166;-57
2024/02/11 01:52:42;;;;;;;;;;;;;;;16.61;47.43;100086.13;5035548;28;1365;-57
2024/02/11 01:55:09;;;;;;;;;;;;;;;17.83;47.79;100092.31;5041234;28;1372;-59
2024/02/11 01:57:35;;;;;;;;;;;;;;;17.25;48.55;100078.56;5037714;28;1333;-58
2024/02/11 02:00:02;;;;;;;;;;;;;;;16.78;48.09;100085.69;5035039;28;1106;-58
2024/02/11 02:02:30;;;;;;;;;;;;;;;16.62;47.53;100087.78;5032614;28;1606;-58
2024/02/11 02:04:55;;;;;;;;;;;;;;;17.86;47.89;100086.22;5032678;28;1902;-57
2024/02/11 02:07:20;;;;;;;;;;;;;;;17.27;48.41;100097.50;5025221;28;1136;-54
2024/02/11 02:09:46;;;;;;;;;;;;;;;16.95;48.06;100103.66;5023134;28;1156;-52
2024/02/11 02:12:14;;;;;;;;;;;;;;;16.73;47.35;100104.94;5035010;28;1047;-52
2024/02/11 02:14:40;;;;;;;;;;;;;;;16.52;47.11;100098.84;5022081;28;1131;-59
2024/02/11 02:17:05;;;;;;;;;;;;;;;17.62;47.73;100117.34;5022714;28;1167;-52
2024/02/11 02:19:31;;;;;;;;;;;;;;;17.21;48.30;100099.47;5030319;28;1187;-53
2024/02/11 02:21:56;;;;;;;;;;;;;;;16.85;47.97;100101.81;5027986;28;1051;-50
2024/02/11 02:24:22;;;;;;;;;;;;;;;16.54;47.33;100102.13;5024003;28;1997;-51
2024/02/11 02:26:48;;;;;;;;;;;;;;;16.48;46.88;100098.63;5035206;28;1079;-54
2024/02/11 02:29:13;;;;;;;;;;;;;;;16.75;47.55;100105.47;5029836;28;1176;-55
2024/02/11 02:31:39;;;;;;;;;;;;;;;18.04;47.30;100110.16;5027914;28;1047;-50
2024/02/11 02:34:04;;;;;;;;;;;;;;;16.95;48.78;100123.69;5029757;28;1064;-50
2024/02/11 02:36:30;;;;;;;;;;;;;;;16.63;48.08;100127.81;5028074;28;1063;-49
2024/02/11 02:38:56;;;;;;;;;;;;;;;16.58;47.30;100139.69;5022599;28;1140;-52
2024/02/11 02:41:22;;;;;;;;;;;;;;;17.39;47.91;100133.59;5035790;28;1071;-52
2024/02/11 02:43:47;;;;;;;;;;;;;;;17.68;47.94;100127.16;5022223;28;1119;-53
2024/02/11 02:46:13;;;;;;;;;;;;;;;16.92;48.40;100118.78;5019310;28;1914;-58
2024/02/11 02:48:38;;;;;;;;;;;;;;;16.67;47.86;100139.88;5023373;28;833;-56
2024/02/11 02:51:04;;;;;;;;;;;;;;;17.96;47.64;100141.06;5018768;28;1258;-57
2024/02/11 02:53:29;;;;;;;;;;;;;;;17.30;48.46;100127.13;5038766;28;1198;-54
2024/02/11 02:55:57;;;;;;;;;;;;;;;16.86;48.04;100128.97;5032068;28;1010;-57
2024/02/11 02:58:23;;;;;;;;;;;;;;;16.72;47.49;100144.50;5024524;28;1015;-56
2024/02/11 03:00:49;;;;;;;;;;;;;;;16.46;47.24;100120.03;5019405;28;862;-52
2024/02/11 03:03:14;;;;;;;;;;;;;;;16.64;47.07;100113.00;5032200;28;1139;-54
2024/02/11 03:05:40;;;;;;;;;;;;;;;18.13;47.31;100113.88;5018343;28;1894;-53
2024/02/11 03:08:06;;;;;;;;;;;;;;;17.21;48.53;100131.66;5018924;28;1043;-54
2024/02/11 03:10:32;;;;;;;;;;;;;;;16.86;48.13;100139.16;5031771;28;1050;-52
2024/02/11 03:12:58;;;;;;;;;;;;;;;17.63;48.41;100130.00;5031043;28;1024;-53
2024/02/11 03:15:23;;;;;;;;;;;;;;;17.38;48.27;100131.97;5018821;28;1175;-56
2024/02/11 03:17:49;;;;;;;;;;;;;;;16.93;48.35;100136.91;5031941;28;1027;-56
2024/02/11 03:20:14;;;;;;;;;;;;;;;16.65;47.83;100128.38;5031210;28;1067;-56
2024/02/11 03:22:40;;;;;;;;;;;;;;;16.55;46.97;100120.22;5018644;28;1063;-57
2024/02/11 03:25:06;;;;;;;;;;;;;;;16.52;46.39;100112.56;5018484;28;1971;-55
2024/02/11 03:27:34;;;;;;;;;;;;;;;16.97;47.36;100102.25;5031755;28;1143;-56
2024/02/11 03:29:59;;;;;;;;;;;;;;;17.87;47.48;100096.91;5038343;28;1171;-56
2024/02/11 03:32:26;;;;;;;;;;;;;;;16.93;48.69;100091.03;5024795;28;1123;-56
2024/02/11 03:34:52;;;;;;;;;;;;;;;16.80;47.76;100121.88;5038224;28;1166;-55
2024/02/11 03:37:17;;;;;;;;;;;;;;;16.56;47.08;100122.69;5036344;28;1139;-51
2024/02/11 03:39:43;;;;;;;;;;;;;;;18.05;47.48;100128.28;5016910;28;1087;-54
2024/02/11 03:42:08;;;;;;;;;;;;;;;17.27;48.62;100116.72;5030720;28;1047;-55
2024/02/11 03:44:34;;;;;;;;;;;;;;;16.87;48.28;100127.03;5025472;28;1989;-56
2024/02/11 03:47:02;;;;;;;;;;;;;;;16.73;47.49;100122.25;5035979;28;1299;-53
2024/02/11 03:49:28;;;;;;;;;;;;;;;16.56;47.11;100110.88;5028428;28;1013;-52
2024/02/11 03:51:56;;;;;;;;;;;;;;;16.45;46.56;100125.81;5032507;28;1405;-53
2024/02/11 03:54:23;;;;;;;;;;;;;;;17.51;47.99;100129.59;5025815;28;1079;-56
2024/02/11 03:56:49;;;;;;;;;;;;;;;17.42;48.34;100135.75;5018688;28;910;-56
2024/02/11 03:59:15;;;;;;;;;;;;;;;16.76;48.89;100129.91;5029620;28;1079;-57
2024/02/11 04:01:40;;;;;;;;;;;;;;;16.60;47.93;100118.25;5024543;28;1139;-52
2024/02/11 04:04:06;;;;;;;;;;;;;;;17.16;48.44;100105.03;5023283;28;901;-54
2024/02/11 04:06:34;;;;;;;;;;;;;;;17.84;47.57;100089.25;5017639;28;1978;-50
2024/02/11 04:09:00;;;;;;;;;;;;;;;16.96;48.61;100078.66;5030150;28;1484;-52
2024/02/11 04:11:29;;;;;;;;;;;;;;;16.75;47.77;100075.28;5017667;28;1214;-52
2024/02/11 04:13:55;;;;;;;;;;;;;;;16.89;48.24;100083.69;5029185;28;864;-51
2024/02/11 04:16:22;;;;;;;;;;;;;;;18.10;47.32;100089.72;5030712;28;1068;-48
2024/02/11 04:18:52;;;;;;;;;;;;;;;17.02;48.68;100102.19;5019124;28;1482;-56
2024/02/11 04:21:20;;;;;;;;;;;;;;;16.71;48.29;100104.44;5025521;28;2664;-50
2024/02/11 04:23:46;;;;;;;;;;;;;;;17.78;48.09;100110.53;5023994;28;1937;-55
2024/02/11 04:26:13;;;;;;;;;;;;;;;17.08;48.52;100109.25;5026098;28;2008;-59
2024/02/11 04:28:41;;;;;;;;;;;;;;;16.75;48.05;100092.56;5022128;28;1908;-50
2024/02/11 04:31:09;;;;;;;;;;;;;;;17.79;47.78;100087.41;5020266;28;2093;-49
2024/02/11 04:33:40;;;;;;;;;;;;;;;17.02;48.63;100084.88;5034880;28;1818;-57
2024/02/11 04:36:12;;;;;;;;;;;;;;;16.76;47.91;100077.72;5023519;28;2025;-51
2024/02/11 04:38:37;;;;;;;;;;;;;;;16.60;47.46;100084.50;5028263;28;1039;-52
2024/02/11 04:41:04;;;;;;;;;;;;;;;16.57;46.86;100104.28;5016724;28;1128;-54
2024/02/11 04:43:34;;;;;;;;;;;;;;;17.32;47.72;100100.19;5017292;28;1017;-53
2024/02/11 04:46:02;;;;;;;;;;;;;;;17.40;48.24;100083.03;5023363;28;2029;-55
2024/02/11 04:48:28;;;;;;;;;;;;;;;16.84;48.82;100067.22;5033893;28;1070;-54
2024/02/11 04:50:57;;;;;;;;;;;;;;;16.67;47.82;100082.22;5032265;28;1112;-53
2024/02/11 04:53:22;;;;;;;;;;;;;;;17.41;48.48;100059.91;5027131;28;1055;-55
2024/02/11 04:55:50;;;;;;;;;;;;;;;17.61;48.14;100074.47;5024757;28;993;-48
2024/02/11 04:58:18;;;;;;;;;;;;;;;16.97;48.53;100072.03;5025889;28;1286;-44
2024/02/11 05:00:47;;;;;;;;;;;;;;;16.71;47.86;100080.53;5019607;28;979;-50
2024/02/11 05:03:17;;;;;;;;;;;;;;;16.62;47.37;100087.78;5015992;28;1128;-50
2024/02/11 05:05:43;;;;;;;;;;;;;;;16.50;46.67;100077.19;5015976;28;2247;-48
2024/02/11 05:08:09;;;;;;;;;;;;;;;16.33;46.79;100090.53;5023696;28;1064;-49
2024/02/11 05:10:37;;;;;;;;;;;;;;;17.50;47.76;100100.47;5021092;28;1170;-49
2024/02/11 05:13:04;;;;;;;;;;;;;;;17.60;48.43;100105.84;5024889;28;1001;-51
2024/02/11 05:15:33;;;;;;;;;;;;;;;17.04;49.31;100110.97;5032892;28;1437;-48
2024/02/11 05:18:00;;;;;;;;;;;;;;;17.72;47.65;100108.94;5016498;28;1025;-49
2024/02/11 05:20:26;;;;;;;;;;;;;;;17.24;48.76;100107.13;5016645;28;996;-48
2024/02/11 05:22:52;;;;;;;;;;;;;;;16.93;49.57;100099.25;5029866;28;987;-46
2024/02/11 05:25:20;;;;;;;;;;;;;;;16.84;49.50;100108.41;5016244;28;1906;-47
2024/02/11 05:27:56;;;;;;;;;;;;;;;16.65;50.15;100122.03;5022620;28;1118;-48
2024/02/11 05:30:26;;;;;;;;;;;;;;;16.48;50.42;100120.56;5034461;28;1012;-51
2024/02/11 05:32:53;;;;;;;;;;;;;;;16.41;50.54;100120.91;5029017;28;976;-48
2024/02/11 05:35:19;;;;;;;;;;;;;;;16.27;50.73;100119.09;5014346;28;1967;-48
2024/02/11 05:37:45;;;;;;;;;;;;;;;16.24;50.99;100110.38;5015863;28;1116;-49
2024/02/11 05:40:11;;;;;;;;;;;;;;;16.10;51.16;100116.78;5017161;28;1202;-46
2024/02/11 05:42:40;;;;;;;;;;;;;;;16.05;51.23;100129.44;5015721;28;1133;-46
2024/02/11 05:45:06;;;;;;;;;;;;;;;15.91;51.48;100133.94;5029096;28;1969;-45
2024/02/11 05:47:32;;;;;;;;;;;;;;;15.95;51.35;100131.41;5027298;28;1072;-42
2024/02/11 05:49:57;;;;;;;;;;;;;;;15.78;51.91;100129.88;5018008;28;1099;-42
2024/02/11 05:52:23;;;;;;;;;;;;;;;15.74;51.82;100128.81;5026493;28;1079;-46
2024/02/11 05:54:49;;;;;;;;;;;;;;;15.65;51.91;100125.00;5020293;28;1063;-46
2024/02/11 05:57:14;;;;;;;;;;;;;;;15.53;52.09;100136.31;5016044;28;1100;-44
2024/02/11 05:59:40;;;;;;;;;;;;;;;15.46;52.28;100133.88;5028782;28;1119;-47
2024/02/11 06:02:06;;;;;;;;;;;;;;;15.44;52.16;100133.31;5015428;28;892;-49
2024/02/11 06:04:31;;;;;;;;;;;;;;;15.62;52.31;100131.88;5028975;28;1906;-49
2024/02/11 06:06:57;;;;;;;;;;;;;;;17.12;48.57;100130.66;5016125;28;1071;-48
2024/02/11 06:09:24;;;;;;;;;;;;;;;16.89;48.97;100135.84;5020013;28;1160;-47
2024/02/11 06:11:49;;;;;;;;;;;;;;;16.18;50.57;100147.16;5024597;28;1080;-48
2024/02/11 06:14:15;;;;;;;;;;;;;;;16.02;51.17;100146.47;5015487;28;1004;-44
2024/02/11 06:16:41;;;;;;;;;;;;;;;15.76;51.74;100142.22;5015465;28;1335;-49
2024/02/11 06:19:07;;;;;;;;;;;;;;;15.72;51.70;100134.56;5020059;28;1108;-46
2024/02/11 06:21:33;;;;;;;;;;;;;;;15.58;52.23;100139.00;5028057;28;1164;-50
2024/02/11 06:23:58;;;;;;;;;;;;;;;15.48;52.30;100136.34;5023151;28;1156;-49
2024/02/11 06:26:24;;;;;;;;;;;;;;;15.45;52.53;100139.66;5028581;28;1996;-46
2024/02/11 06:28:49;;;;;;;;;;;;;;;16.56;49.92;100143.81;5019627;28;1017;-50
2024/02/11 06:31:15;;;;;;;;;;;;;;;17.42;47.78;100149.50;5019510;28;1108;-49
2024/02/11 06:33:41;;;;;;;;;;;;;;;16.52;49.82;100160.06;5019295;28;1151;-51
2024/02/11 06:36:06;;;;;;;;;;;;;;;16.21;50.82;100163.03;5019538;28;1217;-46
2024/02/11 06:38:32;;;;;;;;;;;;;;;15.90;51.56;100167.91;5030276;28;1074;-46
2024/02/11 06:40:58;;;;;;;;;;;;;;;15.80;51.67;100173.47;5030015;28;1257;-48
2024/02/11 06:43:25;;;;;;;;;;;;;;;15.65;51.92;100164.19;5018850;28;1218;-47
2024/02/11 06:45:51;;;;;;;;;;;;;;;15.57;52.11;100171.09;5028963;28;1914;-47
2024/02/11 06:48:18;;;;;;;;;;;;;;;15.49;52.49;100176.34;5025215;28;1129;-50
2024/02/11 06:50:43;;;;;;;;;;;;;;;16.61;50.14;100173.97;5028321;28;1280;-46
2024/02/11 06:53:09;;;;;;;;;;;;;;;17.46;47.34;100163.47;5031825;28;1052;-48
2024/02/11 06:55:35;;;;;;;;;;;;;;;16.48;49.95;100156.25;5018661;28;1179;-47
2024/02/11 06:58:01;;;;;;;;;;;;;;;16.10;50.96;100163.41;5032456;28;1099;-49
2024/02/11 07:00:26;;;;;;;;;;;;;;;15.90;51.32;100160.50;5018758;28;1215;-47
2024/02/11 07:03:00;;;;;;;;;;;;;;;15.70;51.98;100147.72;5031471;28;1032;-45
2024/02/11 07:05:26;;;;;;;;;;;;;;;15.64;52.13;100154.34;5028768;28;1909;-50
2024/02/11 07:07:51;;;;;;;;;;;;;;;15.55;52.37;100142.31;5020685;28;1055;-46
2024/02/11 07:10:17;;;;;;;;;;;;;;;15.46;52.45;100130.31;5018229;28;1151;-48
2024/02/11 07:12:44;;;;;;;;;;;;;;;16.53;50.20;100133.44;5035678;28;1130;-47
2024/02/11 07:15:11;;;;;;;;;;;;;;;17.54;47.55;100127.06;5024927;28;1340;-48
2024/02/11 07:17:38;;;;;;;;;;;;;;;16.55;49.88;100143.00;5018407;28;1138;-45
2024/02/11 07:20:05;;;;;;;;;;;;;;;16.13;51.07;100149.13;5018804;28;1071;-46
2024/02/11 07:22:31;;;;;;;;;;;;;;;16.01;51.19;100147.56;5018770;28;1187;-49
2024/02/11 07:24:57;;;;;;;;;;;;;;;15.82;51.63;100146.59;5030374;28;1909;-46
2024/02/11 07:27:24;;;;;;;;;;;;;;;15.64;52.35;100131.59;5018207;28;907;-45
2024/02/11 07:29:49;;;;;;;;;;;;;;;15.53;52.41;100141.81;5018141;28;1142;-49
2024/02/11 07:32:15;;;;;;;;;;;;;;;15.57;52.46;100140.09;5017449;28;1120;-48
2024/02/11 07:34:41;;;;;;;;;;;;;;;17.06;48.83;100147.19;5017587;28;1060;-46
2024/02/11 07:37:07;;;;;;;;;;;;;;;17.12;48.60;100136.94;5031304;28;1123;-44
2024/02/11 07:39:32;;;;;;;;;;;;;;;16.42;50.30;100158.22;5017594;28;911;-47
2024/02/11 07:42:01;;;;;;;;;;;;;;;16.07;51.15;100160.16;5018244;28;1261;-45
2024/02/11 07:44:26;;;;;;;;;;;;;;;15.87;51.92;100160.28;5017976;28;1105;-47
2024/02/11 07:46:54;;;;;;;;;;;;;;;15.76;52.22;100166.88;5017752;28;1906;-47
2024/02/11 07:49:20;;;;;;;;;;;;;;;15.66;52.44;100171.31;5022217;28;1159;-48
2024/02/11 07:51:47;;;;;;;;;;;;;;;15.56;52.44;100168.63;5019718;28;910;-48
2024/02/11 07:54:12;;;;;;;;;;;;;;;15.59;52.64;100180.97;5017750;28;1087;-48
2024/02/11 07:56:38;;;;;;;;;;;;;;;17.14;48.85;100177.84;5021908;28;1086;-50
2024/02/11 07:59:04;;;;;;;;;;;;;;;16.95;48.99;100178.63;5024187;28;1259;-48
2024/02/11 08:01:33;;;;;;;;;;;;;;;16.31;50.67;100175.84;5026692;28;1281;-49
2024/02/11 08:03:59;;;;;;;;;;;;;;;16.00;51.41;100180.75;5018392;28;1158;-45
2024/02/11 08:06:25;;;;;;;;;;;;;;;15.84;52.00;100180.03;5018103;28;1984;-47
2024/02/11 08:08:51;;;;;;;;;;;;;;;15.69;52.35;100189.94;5032106;28;1147;-46
2024/02/11 08:11:17;;;;;;;;;;;;;;;15.55;52.57;100192.47;5029976;28;1042;-49
2024/02/11 08:13:43;;;;;;;;;;;;;;;15.48;52.71;100200.16;5020801;28;1286;-48
2024/02/11 08:16:11;;;;;;;;;;;;;;;16.12;51.70;100188.63;5017267;28;851;-50
2024/02/11 08:18:37;;;;;;;;;;;;;;;17.41;48.28;100186.34;5030299;28;1076;-47
2024/02/11 08:21:04;;;;;;;;;;;;;;;16.82;49.42;100201.25;5017491;28;1540;-48
2024/02/11 08:23:30;;;;;;;;;;;;;;;16.27;50.97;100207.75;5030175;28;1060;-46
2024/02/11 08:25:55;;;;;;;;;;;;;;;15.90;51.88;100207.13;5017081;28;1992;-47
2024/02/11 08:28:21;;;;;;;;;;;;;;;15.79;52.07;100211.03;5016871;28;1012;-45
2024/02/11 08:30:47;;;;;;;;;;;;;;;15.70;52.29;100209.94;5020227;28;1203;-49
2024/02/11 08:33:12;;;;;;;;;;;;;;;15.65;52.50;100213.53;5027775;28;1090;-44
2024/02/11 08:35:38;;;;;;;;;;;;;;;15.50;52.74;100214.41;5017383;28;1170;-46
2024/02/11 08:38:03;;;;;;;;;;;;;;;16.24;51.22;100211.03;5016475;28;1047;-43
2024/02/11 08:40:30;;;;;;;;;;;;;;;17.49;48.02;100203.28;5016942;28;1055;-48
2024/02/11 08:42:55;;;;;;;;;;;;;;;16.67;49.93;100204.94;5017166;28;1461;-46
2024/02/11 08:45:21;;;;;;;;;;;;;;;16.24;50.92;100200.88;5017009;28;1976;-49
2024/02/11 08:47:47;;;;;;;;;;;;;;;15.96;51.57;100207.09;5016635;28;1313;-46
2024/02/11 08:50:14;;;;;;;;;;;;;;;15.83;52.24;100197.56;5019168;28;1119;-47
2024/02/11 08:52:40;;;;;;;;;;;;;;;15.74;52.15;100200.88;5026917;28;1036;-45
2024/02/11 08:55:06;;;;;;;;;;;;;;;15.59;52.80;100214.66;5029919;28;1080;-46
2024/02/11 08:57:31;;;;;;;;;;;;;;;15.49;53.02;100206.47;5016415;28;1179;-48
2024/02/11 08:59:57;;;;;;;;;;;;;;;15.98;51.78;100208.47;5032221;28;1087;-46
2024/02/11 09:02:25;;;;;;;;;;;;;;;17.33;48.34;100208.97;5027354;28;1054;-48
2024/02/11 09:04:50;;;;;;;;;;;;;;;16.82;49.64;100209.50;5017065;28;1978;-47
2024/02/11 09:07:18;;;;;;;;;;;;;;;16.25;51.14;100213.47;5025894;28;1114;-47
2024/02/11 09:09:43;;;;;;;;;;;;;;;15.96;51.91;100207.09;5021602;28;1052;-52
2024/02/11 09:12:10;;;;;;;;;;;;;;;15.79;52.25;100211.03;5016530;28;1088;-48
2024/02/11 09:14:38;;;;;;;;;;;;;;;15.66;52.65;100200.66;5034034;28;1167;-48
2024/02/11 09:17:05;;;;;;;;;;;;;;;15.53;52.75;100204.81;5025455;28;1169;-50
2024/02/11 09:19:31;;;;;;;;;;;;;;;15.49;52.90;100209.22;5016532;28;1068;-45
2024/02/11 09:21:59;;;;;;;;;;;;;;;16.13;51.81;100206.72;5028194;28;1152;-48
2024/02/11 09:24:25;;;;;;;;;;;;;;;17.41;48.45;100200.06;5017700;28;1106;-50
2024/02/11 09:26:51;;;;;;;;;;;;;;;16.81;49.64;100210.59;5028074;28;1906;-49
2024/02/11 09:29:17;;;;;;;;;;;;;;;16.21;51.19;100203.38;5022244;28;1067;-48
2024/02/11 09:31:42;;;;;;;;;;;;;;;15.97;51.95;100200.53;5025545;28;1113;-48
2024/02/11 09:34:08;;;;;;;;;;;;;;;15.87;52.16;100190.44;5016122;28;1095;-48
2024/02/11 09:36:34;;;;;;;;;;;;;;;15.71;52.51;100187.75;5016317;28;1116;-47
2024/02/11 09:39:00;;;;;;;;;;;;;;;15.57;53.10;100183.94;5018379;28;1155;-47
2024/02/11 09:41:28;;;;;;;;;;;;;;;15.48;53.02;100180.19;5016423;28;1211;-48
2024/02/11 09:43:56;;;;;;;;;;;;;;;16.58;50.61;100174.56;5029422;28;1051;-47
2024/02/11 09:46:22;;;;;;;;;;;;;;;17.62;47.93;100177.84;5016323;28;1976;-48
2024/02/11 09:48:49;;;;;;;;;;;;;;;16.65;50.39;100176.94;5014841;28;1080;-51
2024/02/11 09:51:15;;;;;;;;;;;;;;;16.26;51.19;100189.63;5015619;28;1062;-47
2024/02/11 09:53:42;;;;;;;;;;;;;;;16.00;52.06;100198.00;5014749;28;1096;-47
2024/02/11 09:56:07;;;;;;;;;;;;;;;15.81;52.47;100199.75;5019161;28;1061;-51
2024/02/11 09:58:33;;;;;;;;;;;;;;;15.76;52.51;100197.03;5032839;28;1071;-48
2024/02/11 10:00:59;;;;;;;;;;;;;;;15.61;53.13;100195.19;5019592;28;1059;-50
2024/02/11 10:03:26;;;;;;;;;;;;;;;16.45;51.31;100197.16;5019942;28;1059;-45
2024/02/11 10:05:51;;;;;;;;;;;;;;;17.50;48.09;100182.94;5029154;28;1906;-53
2024/02/11 10:08:17;;;;;;;;;;;;;;;16.56;50.35;100193.22;5035941;28;1175;-47
2024/02/11 10:10:43;;;;;;;;;;;;;;;16.20;51.46;100179.78;5027815;28;1184;-47
2024/02/11 10:13:16;;;;;;;;;;;;;;;15.93;52.10;100183.00;5022975;28;1051;-52
2024/02/11 10:15:42;;;;;;;;;;;;;;;15.83;52.30;100176.47;5019250;28;1130;-47
2024/02/11 10:18:08;;;;;;;;;;;;;;;15.66;52.73;100171.31;5018231;28;1133;-51
2024/02/11 10:20:37;;;;;;;;;;;;;;;15.63;52.91;100176.56;5019432;28;1111;-49
2024/02/11 10:23:04;;;;;;;;;;;;;;;15.52;53.17;100164.81;5024660;28;1242;-50
2024/02/11 10:25:33;;;;;;;;;;;;;;;16.82;50.28;100166.38;5033670;28;1914;-47
2024/02/11 10:28:00;;;;;;;;;;;;;;;17.45;48.18;100168.16;5021976;28;1103;-49
2024/02/11 10:30:26;;;;;;;;;;;;;;;16.51;50.77;100169.41;5018639;28;1134;-47
2024/02/11 10:32:58;;;;;;;;;;;;;;;16.07;51.85;100156.56;5026197;28;1139;-49
2024/02/11 10:35:25;;;;;;;;;;;;;;;15.94;52.07;100155.28;5037803;28;1050;-46
2024/02/11 10:37:51;;;;;;;;;;;;;;;15.73;52.81;100138.94;5019337;28;1132;-49
2024/02/11 10:40:17;;;;;;;;;;;;;;;15.66;52.94;100137.63;5028955;28;1115;-47
2024/02/11 10:42:44;;;;;;;;;;;;;;;15.63;53.01;100125.28;5019134;28;1272;-48
2024/02/11 10:45:09;;;;;;;;;;;;;;;15.69;53.08;100126.88;5019400;28;1906;-47
2024/02/11 10:47:36;;;;;;;;;;;;;;;17.18;49.18;100127.56;5039231;28;1127;-49
2024/02/11 10:50:03;;;;;;;;;;;;;;;17.11;48.94;100132.59;5036479;28;1167;-50
2024/02/11 10:52:30;;;;;;;;;;;;;;;16.30;51.25;100122.09;5021733;28;841;-51
2024/02/11 10:54:56;;;;;;;;;;;;;;;16.07;51.98;100110.78;5019314;28;1195;-51
2024/02/11 10:57:21;;;;;;;;;;;;;;;15.85;52.28;100113.94;5017749;28;1060;-50
2024/02/11 10:59:51;;;;;;;;;;;;;;;15.81;52.54;100107.41;5021473;28;1191;-51
2024/02/11 11:02:17;;;;;;;;;;;;;;;15.64;52.95;100107.75;5028703;28;1024;-49
2024/02/11 11:04:43;;;;;;;;;;;;;;;15.52;53.10;100093.56;5030580;28;1985;-50
2024/02/11 11:07:12;;;;;;;;;;;;;;;15.64;53.15;100091.31;5016369;28;1113;-50
2024/02/11 11:09:38;;;;;;;;;;;;;;;17.15;49.22;100086.09;5022844;28;1179;-50
2024/02/11 11:12:09;;;;;;;;;;;;;;;17.21;48.93;100087.69;5027068;28;1199;-47
2024/02/11 11:14:42;;;;;;;;;;;;;;;16.36;51.19;100096.25;5031643;28;1139;-49
2024/02/11 11:17:17;;;;;;;;;;;;;;;15.95;52.31;100090.28;5018279;28;874;-50
2024/02/11 11:19:47;;;;;;;;;;;;;;;15.87;52.55;100078.81;5018417;28;1092;-49
2024/02/11 11:22:13;;;;;;;;;;;;;;;15.72;52.99;100068.78;5018748;28;1198;-50
2024/02/11 11:24:39;;;;;;;;;;;;;;;15.58;52.97;100059.53;5031283;28;1106;-49
2024/02/11 11:27:04;;;;;;;;;;;;;;;15.52;53.38;100069.72;5031675;28;1956;-46
2024/02/11 11:29:32;;;;;;;;;;;;;;;16.21;51.76;100066.22;5023497;28;957;-50
2024/02/11 11:31:58;;;;;;;;;;;;;;;17.48;48.51;100053.25;5038155;28;1199;-46
2024/02/11 11:34:27;;;;;;;;;;;;;;;16.65;50.45;100046.03;5024762;28;1019;-51
2024/02/11 11:36:53;;;;;;;;;;;;;;;16.19;51.83;100047.31;5037233;28;1086;-51
2024/02/11 11:39:19;;;;;;;;;;;;;;;15.91;52.29;100048.94;5024911;28;1155;-49
2024/02/11 11:41:47;;;;;;;;;;;;;;;15.82;52.77;100050.63;5023987;28;977;-48
2024/02/11 11:44:18;;;;;;;;;;;;;;;15.67;53.01;100055.09;5017489;28;1434;-47
2024/02/11 11:46:44;;;;;;;;;;;;;;;15.59;52.94;100049.41;5018409;28;1906;-53
2024/02/11 11:49:09;;;;;;;;;;;;;;;15.81;53.02;100043.50;5018078;28;1159;-49
2024/02/11 11:51:36;;;;;;;;;;;;;;;17.23;49.26;100044.22;5029648;28;1057;-49
2024/02/11 11:54:04;;;;;;;;;;;;;;;16.79;50.06;100042.56;5017847;28;1043;-46
2024/02/11 11:56:30;;;;;;;;;;;;;;;16.20;51.68;100042.63;5031183;28;1162;-50
2024/02/11 11:59:03;;;;;;;;;;;;;;;15.94;52.36;100034.63;5017738;28;1129;-47
2024/02/11 12:01:28;;;;;;;;;;;;;;;15.78;52.59;100031.19;5017340;28;1261;-48
2024/02/11 12:03:54;;;;;;;;;;;;;;;15.66;52.96;100026.06;5017447;28;1226;-50
2024/02/11 12:06:22;;;;;;;;;;;;;;;15.52;53.25;100023.13;5017402;28;1910;-48
2024/02/11 12:08:48;;;;;;;;;;;;;;;16.40;51.69;100015.00;5017629;28;1310;-51
2024/02/11 12:11:14;;;;;;;;;;;;;;;17.54;48.46;99992.38;5028736;28;1318;-49
2024/02/11 12:13:39;;;;;;;;;;;;;;;16.70;50.55;99995.72;5026823;28;1397;-50
2024/02/11 12:16:15;;;;;;;;;;;;;;;16.25;51.39;100006.94;5029539;28;1385;-48
2024/02/11 12:18:41;;;;;;;;;;;;;;;15.95;52.44;100017.09;5028299;28;1102;-51
2024/02/11 12:21:08;;;;;;;;;;;;;;;15.85;52.71;100019.91;5036728;28;1086;-48
2024/02/11 12:23:34;;;;;;;;;;;;;;;15.75;52.80;100007.06;5037419;28;1114;-53
2024/02/11 12:26:00;;;;;;;;;;;;;;;15.61;53.00;100009.63;5019191;28;1980;-48
2024/02/11 12:28:31;;;;;;;;;;;;;;;15.88;52.79;100006.44;5027885;28;1439;-52
2024/02/11 12:31:04;;;;;;;;;;;;;;;17.35;49.05;99994.31;5023456;28;1297;-49
2024/02/11 12:33:30;;;;;;;;;;;;;;;16.84;49.99;99999.38;5023233;28;1349;-52
2024/02/11 12:35:55;;;;;;;;;;;;;;;16.22;51.83;100019.28;5028098;28;1394;-52
2024/02/11 12:38:21;;;;;;;;;;;;;;;15.99;52.45;100003.59;5018331;28;1106;-49
2024/02/11 12:40:47;;;;;;;;;;;;;;;15.90;52.45;100004.22;5016985;28;1126;-47
2024/02/11 12:43:13;;;;;;;;;;;;;;;15.76;52.74;99999.69;5017278;28;1083;-49